Time;durP1;ratioP1;P1;durP2;ratioP2;P2;SDS_P1;SDS_P2;PMS_P1;PMS_P2;Temp;Humidity;BMP_temperature;BMP_pressure;BME280_temperature;BME280_humidity;BME280_pressure;Samples;Min_cycle;Max_cycle;Signal;HPM_P1;HPM_P2
2021/10/14 00:00:25;;;;;;;17.10;10.82;;;12.40;99.90;;;;;;5049817;28;20044;-68
2021/10/14 00:02:51;;;;;;;15.23;9.90;;;12.40;99.90;;;;;;5035187;28;20052;-68
2021/10/14 00:05:17;;;;;;;23.73;12.95;;;12.40;99.90;;;;;;5050725;28;20068;-68
2021/10/14 00:07:43;;;;;;;23.92;12.52;;;12.40;99.90;;;;;;5050660;28;20049;-70
2021/10/14 00:10:09;;;;;;;12.60;9.32;;;12.40;99.90;;;;;;5034114;28;20057;-69
2021/10/14 00:12:35;;;;;;;13.70;10.55;;;12.40;99.90;;;;;;5051367;28;20125;-70
2021/10/14 00:15:02;;;;;;;20.27;11.48;;;12.40;99.90;;;;;;5051535;28;20062;-70
2021/10/14 00:17:27;;;;;;;26.33;13.27;;;12.40;99.90;;;;;;5050780;28;20051;-70
2021/10/14 00:19:53;;;;;;;27.25;14.07;;;12.30;99.90;;;;;;5034586;28;20064;-70
2021/10/14 00:22:19;;;;;;;16.48;12.05;;;12.40;99.90;;;;;;5051165;28;20131;-70
2021/10/14 00:24:45;;;;;;;24.83;14.57;;;12.30;99.90;;;;;;5049871;28;20056;-69
2021/10/14 00:27:11;;;;;;;16.67;10.05;;;12.30;99.90;;;;;;5050492;28;20037;-70
2021/10/14 00:29:37;;;;;;;22.77;13.65;;;12.30;99.90;;;;;;5034907;28;20056;-75
2021/10/14 00:32:02;;;;;;;17.73;11.70;;;12.30;99.90;;;;;;5051566;28;20487;-69
2021/10/14 00:34:28;;;;;;;25.08;13.95;;;12.20;99.90;;;;;;5050628;28;20041;-70
2021/10/14 00:36:54;;;;;;;18.55;11.52;;;12.20;99.90;;;;;;5049308;28;20052;-70
2021/10/14 00:39:20;;;;;;;28.73;15.73;;;12.20;99.90;;;;;;5050754;28;20562;-70
2021/10/14 00:41:45;;;;;;;29.63;14.63;;;12.20;99.90;;;;;;5051752;28;20049;-69
2021/10/14 00:44:11;;;;;;;24.00;13.95;;;12.20;99.90;;;;;;5049032;28;20033;-70
2021/10/14 00:46:37;;;;;;;21.85;14.13;;;12.20;99.90;;;;;;5033099;28;20036;-69
2021/10/14 00:49:03;;;;;;;22.70;13.40;;;12.20;99.90;;;;;;5033028;28;20052;-69
2021/10/14 00:51:29;;;;;;;22.05;14.18;;;12.20;99.90;;;;;;5048234;28;20033;-70
2021/10/14 00:53:55;;;;;;;24.13;13.88;;;12.20;99.90;;;;;;5033866;28;20045;-70
2021/10/14 00:56:21;;;;;;;17.48;12.05;;;12.20;99.90;;;;;;5033817;28;20627;-70
2021/10/14 00:58:48;;;;;;;26.60;14.02;;;12.20;99.90;;;;;;5033674;28;20495;-69
2021/10/14 01:01:14;;;;;;;30.95;15.40;;;12.20;99.90;;;;;;5029137;28;20045;-70
2021/10/14 01:03:40;;;;;;;26.92;14.68;;;12.30;99.90;;;;;;5049005;28;20067;-69
2021/10/14 01:06:06;;;;;;;19.52;12.63;;;12.20;99.90;;;;;;5046656;28;20527;-69
2021/10/14 01:08:35;;;;;;;24.05;13.40;;;12.20;99.90;;;;;;5033254;28;20107;-69
2021/10/14 01:11:02;;;;;;;28.05;14.98;;;12.20;99.90;;;;;;5032641;28;20047;-70
2021/10/14 01:13:27;;;;;;;33.60;15.68;;;12.20;99.90;;;;;;5049842;28;20569;-69
2021/10/14 01:15:53;;;;;;;30.80;14.55;;;12.10;99.90;;;;;;5049772;28;20044;-69
2021/10/14 01:18:19;;;;;;;31.00;15.73;;;12.10;99.90;;;;;;5049712;28;20051;-69
2021/10/14 01:20:45;;;;;;;20.13;13.38;;;12.10;99.90;;;;;;5050306;28;20048;-70
2021/10/14 01:23:12;;;;;;;28.27;15.65;;;12.00;99.90;;;;;;5047475;28;20047;-69
2021/10/14 01:25:38;;;;;;;19.85;12.98;;;12.00;99.90;;;;;;5028655;28;20499;-69
2021/10/14 01:28:04;;;;;;;23.63;13.85;;;12.00;99.90;;;;;;5048642;28;20051;-69
2021/10/14 01:30:29;;;;;;;22.90;13.05;;;12.00;99.90;;;;;;5050188;28;20125;-70
2021/10/14 01:32:55;;;;;;;28.17;14.60;;;12.00;99.90;;;;;;5032827;28;20040;-69
2021/10/14 01:35:21;;;;;;;29.02;14.18;;;12.00;99.90;;;;;;5029202;28;20036;-69
2021/10/14 01:37:47;;;;;;;29.38;15.60;;;12.00;99.90;;;;;;5032872;28;20052;-70
2021/10/14 01:40:13;;;;;;;26.17;14.77;;;12.00;99.90;;;;;;5049487;28;20407;-69
2021/10/14 01:42:39;;;;;;;26.33;14.45;;;12.00;99.90;;;;;;5031525;28;20132;-69
2021/10/14 01:45:06;;;;;;;31.42;15.40;;;12.10;99.90;;;;;;5033106;28;20055;-69
2021/10/14 01:47:35;;;;;;;24.80;14.85;;;12.00;99.90;;;;;;5045963;28;20114;-69
2021/10/14 01:50:01;;;;;;;22.02;13.52;;;12.10;99.90;;;;;;5048981;28;20048;-69
2021/10/14 01:52:27;;;;;;;32.42;15.57;;;12.10;99.90;;;;;;5049628;28;20143;-69
2021/10/14 01:54:53;;;;;;;35.22;16.55;;;12.10;99.90;;;;;;5047777;28;20119;-69
2021/10/14 01:57:19;;;;;;;26.23;13.27;;;12.10;99.90;;;;;;5030265;28;20041;-69
2021/10/14 01:59:48;;;;;;;18.90;11.73;;;12.10;99.90;;;;;;5049647;28;20487;-70
2021/10/14 02:02:14;;;;;;;31.77;14.82;;;12.10;99.90;;;;;;5047996;28;20076;-69
2021/10/14 02:04:40;;;;;;;20.33;12.23;;;12.10;99.90;;;;;;5051065;28;20036;-69
2021/10/14 02:07:05;;;;;;;19.45;11.48;;;12.10;99.90;;;;;;5050614;28;20220;-69
2021/10/14 02:09:34;;;;;;;29.80;13.40;;;12.10;99.90;;;;;;5033529;28;20047;-69
2021/10/14 02:12:00;;;;;;;28.40;13.43;;;12.20;99.90;;;;;;5022341;28;20051;-69
2021/10/14 02:14:26;;;;;;;19.00;11.25;;;12.10;99.90;;;;;;5050861;28;20487;-69
2021/10/14 02:16:52;;;;;;;23.25;12.50;;;12.20;99.90;;;;;;5033211;28;20160;-69
2021/10/14 02:19:17;;;;;;;19.95;11.18;;;12.20;99.90;;;;;;5032471;28;20044;-69
2021/10/14 02:21:43;;;;;;;23.70;11.90;;;12.20;99.90;;;;;;5049096;28;20454;-69
2021/10/14 02:24:09;;;;;;;29.02;12.50;;;12.20;99.90;;;;;;5031540;28;20044;-69
2021/10/14 02:26:35;;;;;;;20.92;10.93;;;12.30;99.90;;;;;;5033049;28;20491;-69
2021/10/14 02:29:00;;;;;;;32.83;10.85;;;12.30;99.90;;;;;;5032840;28;20049;-69
2021/10/14 02:31:26;;;;;;;34.20;11.40;;;12.30;99.90;;;;;;5032890;28;20043;-69
2021/10/14 02:33:52;;;;;;;16.80;8.52;;;12.30;99.90;;;;;;5031421;28;20093;-69
2021/10/14 02:36:18;;;;;;;30.60;9.25;;;12.30;99.90;;;;;;5031843;28;20083;-68
2021/10/14 02:38:44;;;;;;;15.52;8.35;;;12.30;99.90;;;;;;5048858;28;20044;-69
2021/10/14 02:41:10;;;;;;;17.23;8.82;;;12.40;99.90;;;;;;5047335;28;20037;-69
2021/10/14 02:43:36;;;;;;;11.82;6.90;;;12.40;99.90;;;;;;5048876;28;20048;-69
2021/10/14 02:46:05;;;;;;;16.25;7.10;;;12.40;99.90;;;;;;5044842;28;21246;-69
2021/10/14 02:48:34;;;;;;;16.75;7.53;;;12.40;99.90;;;;;;5030281;28;20029;-69
2021/10/14 02:51:00;;;;;;;11.45;6.43;;;12.40;99.90;;;;;;5048029;28;20076;-69
2021/10/14 02:53:26;;;;;;;9.18;6.00;;;12.40;99.90;;;;;;5032058;28;20079;-69
2021/10/14 02:55:54;;;;;;;14.95;7.18;;;12.40;99.90;;;;;;5031901;28;20063;-70
2021/10/14 02:58:20;;;;;;;21.42;8.48;;;12.30;99.90;;;;;;5048448;28;20032;-69
2021/10/14 03:00:46;;;;;;;14.95;6.80;;;12.30;99.90;;;;;;5030900;28;20414;-69
2021/10/14 03:03:11;;;;;;;15.13;6.90;;;12.30;99.90;;;;;;5030866;28;20037;-69
2021/10/14 03:05:37;;;;;;;15.32;6.50;;;12.30;99.90;;;;;;5031832;28;20037;-69
2021/10/14 03:08:03;;;;;;;10.48;6.30;;;12.30;99.90;;;;;;5047942;28;20045;-69
2021/10/14 03:10:29;;;;;;;9.77;5.05;;;12.30;99.90;;;;;;5048733;28;20399;-69
2021/10/14 03:12:55;;;;;;;16.35;6.75;;;12.30;99.90;;;;;;5046112;28;20098;-69
2021/10/14 03:15:20;;;;;;;10.05;5.25;;;12.30;99.90;;;;;;5047835;28;20036;-69
2021/10/14 03:17:46;;;;;;;10.27;5.32;;;12.30;99.90;;;;;;5049010;28;20072;-69
2021/10/14 03:20:12;;;;;;;9.45;4.82;;;12.30;99.90;;;;;;5047824;28;20036;-69
2021/10/14 03:22:38;;;;;;;16.10;6.05;;;12.30;99.90;;;;;;5046366;28;20045;-69
2021/10/14 03:25:04;;;;;;;15.57;6.10;;;12.30;99.90;;;;;;5048264;28;20044;-69
2021/10/14 03:27:30;;;;;;;15.75;5.90;;;12.30;99.90;;;;;;5048716;28;20511;-69
2021/10/14 03:29:59;;;;;;;11.70;5.57;;;12.30;99.90;;;;;;5048441;28;20041;-69
2021/10/14 03:32:25;;;;;;;10.30;5.05;;;12.30;99.90;;;;;;5047572;28;20517;-69
2021/10/14 03:34:51;;;;;;;9.63;4.80;;;12.30;99.90;;;;;;5031323;28;20036;-70
2021/10/14 03:37:17;;;;;;;10.13;5.90;;;12.30;99.90;;;;;;5051653;28;20320;-69
2021/10/14 03:39:43;;;;;;;10.15;5.20;;;12.30;99.90;;;;;;5051878;28;20051;-69
2021/10/14 03:42:08;;;;;;;9.45;5.05;;;12.30;99.90;;;;;;5051319;28;20052;-70
2021/10/14 03:44:34;;;;;;;11.40;6.05;;;12.20;99.90;;;;;;5051750;28;20402;-69
2021/10/14 03:47:00;;;;;;;10.30;6.03;;;12.30;99.90;;;;;;5051334;28;20517;-75
2021/10/14 03:49:26;;;;;;;11.55;7.03;;;12.30;99.90;;;;;;5035232;28;20052;-75
2021/10/14 03:51:51;;;;;;;15.73;7.32;;;12.20;99.90;;;;;;5052527;28;20057;-75
2021/10/14 03:54:17;;;;;;;14.05;7.15;;;12.20;99.90;;;;;;5035239;28;20127;-75
2021/10/14 03:56:43;;;;;;;13.63;6.82;;;12.20;99.90;;;;;;5052103;28;20075;-75
2021/10/14 03:59:09;;;;;;;13.43;7.32;;;12.20;99.90;;;;;;5051198;28;20036;-75
2021/10/14 04:01:35;;;;;;;24.25;10.18;;;12.30;99.90;;;;;;5050305;28;20037;-76
2021/10/14 04:04:03;;;;;;;17.98;9.77;;;12.30;99.90;;;;;;5052436;28;20040;-75
2021/10/14 04:06:29;;;;;;;16.40;10.35;;;12.40;99.90;;;;;;5055442;28;20033;-70
2021/10/14 04:08:55;;;;;;;21.88;11.32;;;12.40;99.90;;;;;;5052269;28;20052;-70
2021/10/14 04:11:21;;;;;;;17.75;11.50;;;12.40;99.90;;;;;;5050359;28;20044;-69
2021/10/14 04:13:46;;;;;;;19.92;11.13;;;12.40;99.90;;;;;;5052559;28;20102;-70
2021/10/14 04:16:15;;;;;;;30.13;14.00;;;12.40;99.90;;;;;;5051409;28;20036;-70
2021/10/14 04:19:00;;;;;;;20.23;12.18;;;12.50;99.90;;;;;;5051933;28;20051;-70
2021/10/14 04:21:26;;;;;;;22.05;12.75;;;12.50;99.90;;;;;;5034444;28;20051;-69
2021/10/14 04:23:52;;;;;;;26.55;14.20;;;12.50;99.90;;;;;;5051760;28;20546;-70
2021/10/14 04:26:18;;;;;;;23.70;13.35;;;12.50;99.90;;;;;;5050911;28;20083;-70
2021/10/14 04:28:44;;;;;;;27.50;15.25;;;12.50;99.90;;;;;;5051584;28;20406;-70
2021/10/14 04:31:10;;;;;;;26.20;13.70;;;12.60;99.90;;;;;;5048456;28;20053;-70
2021/10/14 04:33:36;;;;;;;28.23;14.98;;;12.60;99.90;;;;;;5033581;28;20173;-70
2021/10/14 04:36:10;;;;;;;29.85;15.88;;;12.60;99.90;;;;;;5032105;28;20055;-71
2021/10/14 04:38:36;;;;;;;30.65;17.13;;;12.60;99.90;;;;;;5050391;28;20402;-70
2021/10/14 04:41:02;;;;;;;35.45;17.27;;;12.60;99.90;;;;;;5050150;28;20044;-70
2021/10/14 04:43:28;;;;;;;30.17;16.80;;;12.60;99.90;;;;;;5050780;28;20040;-69
2021/10/14 04:45:54;;;;;;;31.75;17.55;;;12.70;99.90;;;;;;5049762;28;20190;-70
2021/10/14 04:48:20;;;;;;;33.63;17.92;;;12.60;99.90;;;;;;5049012;28;20130;-69
2021/10/14 04:50:46;;;;;;;33.33;19.58;;;12.70;99.90;;;;;;5045145;28;20061;-70
2021/10/14 04:53:12;;;;;;;36.58;18.98;;;12.70;99.90;;;;;;5031267;28;20499;-70
2021/10/14 04:55:38;;;;;;;39.63;19.33;;;12.70;99.90;;;;;;5046936;28;20115;-70
2021/10/14 04:58:04;;;;;;;37.67;20.17;;;12.70;99.90;;;;;;5047239;28;20093;-69
2021/10/14 05:00:30;;;;;;;47.15;21.42;;;12.70;99.90;;;;;;5045087;28;20036;-70
2021/10/14 05:02:56;;;;;;;34.85;19.98;;;12.70;99.90;;;;;;5014686;28;20060;-70
2021/10/14 05:05:22;;;;;;;53.63;21.75;;;12.70;99.90;;;;;;5029754;28;20070;-70
2021/10/14 05:07:47;;;;;;;44.85;21.42;;;12.70;99.90;;;;;;5031195;28;20049;-69
2021/10/14 05:10:13;;;;;;;39.88;20.70;;;12.70;99.90;;;;;;5030570;28;20053;-70
2021/10/14 05:12:42;;;;;;;35.55;19.45;;;12.70;99.90;;;;;;5025480;28;20038;-70
2021/10/14 05:15:10;;;;;;;35.63;18.98;;;12.70;99.90;;;;;;5030292;28;20107;-70
2021/10/14 05:17:36;;;;;;;38.15;17.98;;;12.60;99.90;;;;;;5028903;28;20045;-70
2021/10/14 05:20:06;;;;;;;34.65;18.45;;;12.70;99.90;;;;;;5043281;28;20065;-70
2021/10/14 05:22:32;;;;;;;34.08;17.60;;;12.60;99.90;;;;;;5042686;28;20037;-71
2021/10/14 05:24:58;;;;;;;38.15;17.77;;;12.60;99.90;;;;;;5027522;28;20566;-69
2021/10/14 05:27:24;;;;;;;28.73;18.08;;;12.70;99.90;;;;;;5029653;28;20045;-70
2021/10/14 05:29:50;;;;;;;31.10;17.35;;;12.70;99.90;;;;;;5046909;28;20041;-70
2021/10/14 05:32:16;;;;;;;40.03;19.83;;;12.60;99.90;;;;;;5046507;28;20045;-70
2021/10/14 05:34:42;;;;;;;30.88;17.30;;;12.70;99.90;;;;;;5045728;28;20080;-70
2021/10/14 05:37:07;;;;;;;36.42;19.95;;;12.60;99.90;;;;;;5046706;28;20519;-70
2021/10/14 05:39:33;;;;;;;40.88;21.48;;;12.70;99.90;;;;;;5039987;28;20128;-69
2021/10/14 05:41:59;;;;;;;39.97;20.42;;;12.60;99.90;;;;;;5020587;28;20583;-70
2021/10/14 05:44:25;;;;;;;40.80;21.48;;;12.70;99.90;;;;;;5027250;28;20048;-69
2021/10/14 05:46:50;;;;;;;37.97;20.15;;;12.70;99.90;;;;;;5028040;28;20045;-70
2021/10/14 05:49:19;;;;;;;35.95;20.10;;;12.70;99.90;;;;;;5016211;28;20041;-70
2021/10/14 05:51:45;;;;;;;37.58;20.20;;;12.70;99.90;;;;;;5048722;28;20052;-69
2021/10/14 05:54:11;;;;;;;38.40;20.95;;;12.70;99.90;;;;;;4991530;28;20447;-70
2021/10/14 05:56:36;;;;;;;36.20;20.67;;;12.70;99.90;;;;;;5026355;28;20387;-70
2021/10/14 05:59:05;;;;;;;35.25;19.65;;;12.70;99.90;;;;;;5062162;28;20044;-70
2021/10/14 06:01:34;;;;;;;38.25;20.23;;;12.70;99.90;;;;;;5032247;28;20513;-70
2021/10/14 06:04:00;;;;;;;35.22;20.17;;;12.70;99.90;;;;;;5032507;28;20135;-70
2021/10/14 06:06:26;;;;;;;35.90;18.88;;;12.70;99.90;;;;;;5031825;28;20119;-70
2021/10/14 06:08:52;;;;;;;33.75;20.23;;;12.70;99.90;;;;;;5026310;28;20058;-70
2021/10/14 06:11:17;;;;;;;35.72;19.88;;;12.70;99.90;;;;;;5047631;28;20040;-70
2021/10/14 06:13:43;;;;;;;35.47;19.38;;;12.70;99.90;;;;;;5032870;28;20044;-70
2021/10/14 06:16:09;;;;;;;32.75;19.08;;;12.70;99.90;;;;;;5048759;28;20036;-70
2021/10/14 06:18:37;;;;;;;39.30;20.60;;;12.80;99.90;;;;;;5005023;28;20044;-70
2021/10/14 06:21:03;;;;;;;37.78;19.77;;;12.80;99.90;;;;;;5048523;28;20044;-70
2021/10/14 06:23:29;;;;;;;36.15;20.08;;;12.70;99.90;;;;;;5030172;28;20122;-70
2021/10/14 06:25:55;;;;;;;32.92;18.92;;;12.80;99.90;;;;;;5031137;28;20058;-70
2021/10/14 06:28:22;;;;;;;38.58;20.48;;;12.80;99.90;;;;;;5032294;28;20032;-70
2021/10/14 06:30:48;;;;;;;39.70;19.90;;;12.80;99.90;;;;;;5049114;28;20063;-70
2021/10/14 06:33:13;;;;;;;34.60;19.60;;;12.80;99.90;;;;;;5048767;28;20032;-70
2021/10/14 06:35:39;;;;;;;33.22;18.40;;;12.80;99.90;;;;;;5028114;28;20103;-70
2021/10/14 06:38:06;;;;;;;37.25;20.83;;;12.80;99.90;;;;;;5049121;28;20037;-70
2021/10/14 06:40:34;;;;;;;35.83;19.83;;;12.80;99.90;;;;;;5031822;28;20036;-69
2021/10/14 06:43:00;;;;;;;42.97;20.15;;;12.80;99.90;;;;;;5048626;28;20067;-69
2021/10/14 06:45:26;;;;;;;35.58;19.90;;;12.80;99.90;;;;;;5045729;28;20091;-69
2021/10/14 06:47:52;;;;;;;29.27;18.95;;;12.80;99.90;;;;;;5064811;28;20045;-70
2021/10/14 06:50:18;;;;;;;32.05;18.50;;;12.80;99.90;;;;;;5028010;28;20056;-69
2021/10/14 06:52:44;;;;;;;37.25;18.90;;;12.80;99.90;;;;;;5045780;28;20506;-69
2021/10/14 06:55:10;;;;;;;28.80;17.70;;;12.80;99.90;;;;;;5044703;28;20044;-69
2021/10/14 06:57:37;;;;;;;27.60;16.17;;;12.80;99.90;;;;;;5028526;28;20052;-69
2021/10/14 07:00:05;;;;;;;30.27;15.45;;;12.80;99.90;;;;;;5048508;28;20037;-69
2021/10/14 07:02:34;;;;;;;26.20;16.98;;;12.80;99.90;;;;;;5047073;28;20098;-70
2021/10/14 07:05:02;;;;;;;23.08;13.95;;;12.80;99.90;;;;;;5054022;28;20051;-69
2021/10/14 07:07:27;;;;;;;22.30;13.50;;;12.80;99.90;;;;;;5028438;28;20119;-69
2021/10/14 07:09:53;;;;;;;21.95;13.48;;;12.80;99.90;;;;;;5047355;28;20449;-70
2021/10/14 07:12:26;;;;;;;19.42;13.07;;;12.80;99.90;;;;;;5032464;28;20131;-70
2021/10/14 07:14:56;;;;;;;20.52;12.27;;;12.80;99.90;;;;;;5068593;28;20044;-70
2021/10/14 07:17:22;;;;;;;19.50;11.97;;;12.80;99.90;;;;;;5031956;28;20419;-70
2021/10/14 07:19:48;;;;;;;19.23;13.13;;;12.80;99.90;;;;;;5051219;28;21137;-70
2021/10/14 07:22:14;;;;;;;18.80;12.43;;;12.80;99.90;;;;;;5051256;28;20080;-70
2021/10/14 07:24:39;;;;;;;16.40;10.98;;;12.80;99.90;;;;;;5033812;28;20077;-69
2021/10/14 07:27:09;;;;;;;16.95;10.93;;;12.70;99.90;;;;;;5033923;28;20128;-69
2021/10/14 07:29:35;;;;;;;15.67;10.03;;;12.70;99.90;;;;;;5035175;28;20048;-70
2021/10/14 07:32:06;;;;;;;14.85;11.00;;;12.70;99.90;;;;;;5049571;28;20119;-70
2021/10/14 07:34:37;;;;;;;19.02;10.70;;;12.70;99.90;;;;;;5054270;28;20456;-70
2021/10/14 07:37:04;;;;;;;16.33;10.40;;;12.70;99.90;;;;;;5050511;28;20043;-70
2021/10/14 07:39:31;;;;;;;14.68;9.35;;;12.70;99.90;;;;;;5038498;28;20045;-70
2021/10/14 07:41:59;;;;;;;15.00;9.38;;;12.70;99.90;;;;;;5032404;28;20056;-69
2021/10/14 07:44:25;;;;;;;14.20;9.45;;;12.70;99.90;;;;;;5051226;28;20135;-70
2021/10/14 07:46:51;;;;;;;12.95;9.75;;;12.70;99.90;;;;;;5051138;28;20131;-69
2021/10/14 07:49:19;;;;;;;13.65;9.57;;;12.70;99.90;;;;;;5030691;28;20047;-70
2021/10/14 07:51:45;;;;;;;16.20;9.80;;;12.70;99.90;;;;;;5049244;28;20077;-70
2021/10/14 07:54:12;;;;;;;14.00;9.48;;;12.70;99.90;;;;;;5015246;28;20454;-70
2021/10/14 07:56:38;;;;;;;15.25;9.38;;;12.70;99.90;;;;;;5031998;28;20049;-69
2021/10/14 07:59:04;;;;;;;16.83;9.98;;;12.70;99.90;;;;;;5032935;28;20044;-70
2021/10/14 08:01:30;;;;;;;14.77;10.32;;;12.70;99.90;;;;;;5017211;28;20033;-70
2021/10/14 08:03:57;;;;;;;17.35;10.25;;;12.80;99.90;;;;;;5048006;28;20050;-69
2021/10/14 08:06:23;;;;;;;16.55;10.00;;;12.80;99.90;;;;;;5048292;28;20132;-69
2021/10/14 08:08:49;;;;;;;15.45;9.32;;;12.80;99.90;;;;;;5045529;28;20545;-69
2021/10/14 08:11:16;;;;;;;14.95;10.43;;;12.80;99.90;;;;;;5015643;28;20123;-69
2021/10/14 08:13:42;;;;;;;12.30;9.32;;;12.80;99.90;;;;;;5044769;28;20112;-68
2021/10/14 08:16:08;;;;;;;16.75;10.82;;;12.80;99.90;;;;;;5015001;28;20800;-69
2021/10/14 08:18:37;;;;;;;15.38;9.23;;;12.80;99.90;;;;;;5029669;28;20068;-69
2021/10/14 08:21:03;;;;;;;13.40;8.93;;;12.80;99.90;;;;;;5044828;28;20052;-69
2021/10/14 08:23:29;;;;;;;13.82;9.27;;;12.80;99.90;;;;;;5051835;28;20041;-69
2021/10/14 08:25:55;;;;;;;13.38;9.70;;;12.80;99.90;;;;;;5045042;28;20797;-69
2021/10/14 08:28:24;;;;;;;12.10;9.70;;;12.80;99.90;;;;;;5046405;28;20041;-69
2021/10/14 08:30:50;;;;;;;15.88;9.90;;;12.80;99.90;;;;;;5047625;28;20545;-69
2021/10/14 08:33:16;;;;;;;15.77;10.05;;;12.80;99.90;;;;;;5047063;28;20033;-69
2021/10/14 08:35:42;;;;;;;13.52;7.88;;;12.90;99.90;;;;;;5046125;28;20036;-69
2021/10/14 08:38:10;;;;;;;16.17;9.23;;;12.90;99.90;;;;;;5031494;28;20041;-69
2021/10/14 08:40:40;;;;;;;13.07;8.75;;;12.90;99.90;;;;;;5029085;28;20049;-69
2021/10/14 08:43:13;;;;;;;11.73;7.97;;;12.90;99.90;;;;;;5030706;28;20048;-69
2021/10/14 08:45:41;;;;;;;14.35;8.80;;;12.90;99.90;;;;;;5029170;28;20406;-69
2021/10/14 08:48:08;;;;;;;13.05;7.90;;;12.90;99.90;;;;;;5030565;28;20484;-69
2021/10/14 08:50:40;;;;;;;14.43;8.32;;;12.90;99.90;;;;;;5045212;28;20049;-69
2021/10/14 08:53:06;;;;;;;11.38;8.30;;;12.90;99.90;;;;;;5051205;28;20045;-69
2021/10/14 08:55:38;;;;;;;11.35;7.78;;;13.00;99.90;;;;;;5013892;28;20076;-69
2021/10/14 08:58:10;;;;;;;12.02;7.53;;;13.10;99.90;;;;;;5031355;28;20491;-69
2021/10/14 09:00:38;;;;;;;11.13;7.93;;;13.10;99.90;;;;;;5046512;28;20079;-69
2021/10/14 09:03:27;;;;;;;10.88;7.07;;;13.20;99.90;;;;;;5030072;28;20136;-69
2021/10/14 09:05:53;;;;;;;11.65;7.40;;;13.20;99.90;;;;;;5046946;28;20045;-69
2021/10/14 09:08:54;;;;;;;13.70;8.10;;;13.30;99.90;;;;;;5046793;28;20080;-69
2021/10/14 09:11:27;;;;;;;8.68;6.85;;;13.30;99.90;;;;;;5025987;28;20041;-69
2021/10/14 09:13:55;;;;;;;12.20;8.05;;;13.30;99.90;;;;;;5021107;28;20523;-69
2021/10/14 09:16:27;;;;;;;12.35;7.75;;;13.40;99.90;;;;;;5028565;28;20048;-69
2021/10/14 09:18:55;;;;;;;11.65;8.25;;;13.50;99.90;;;;;;5043670;28;20503;-69
2021/10/14 09:21:25;;;;;;;14.38;8.63;;;13.50;99.90;;;;;;5062766;28;20081;-69
2021/10/14 09:23:52;;;;;;;13.13;8.00;;;13.60;99.90;;;;;;5047916;28;20098;-69
2021/10/14 09:26:37;;;;;;;11.05;7.72;;;13.70;99.90;;;;;;5046111;28;20055;-68
2021/10/14 09:29:09;;;;;;;11.65;7.75;;;13.70;99.90;;;;;;5046850;28;20137;-69
2021/10/14 09:31:50;;;;;;;13.70;7.50;;;13.80;99.90;;;;;;5045231;28;20037;-69
2021/10/14 09:34:28;;;;;;;12.13;7.85;;;13.80;99.90;;;;;;5045827;28;20037;-68
2021/10/14 09:36:56;;;;;;;8.57;6.82;;;13.90;99.90;;;;;;5038413;28;20155;-69
2021/10/14 09:39:21;;;;;;;12.10;7.05;;;13.90;99.90;;;;;;5047935;28;20040;-68
2021/10/14 09:41:47;;;;;;;12.13;6.68;;;14.00;99.90;;;;;;5044030;28;20515;-69
2021/10/14 09:44:16;;;;;;;11.98;6.10;;;14.00;99.90;;;;;;5010918;28;20422;-68
2021/10/14 09:46:50;;;;;;;12.15;6.60;;;14.00;99.90;;;;;;5045493;28;20041;-69
2021/10/14 09:49:28;;;;;;;18.48;7.25;;;14.10;99.90;;;;;;5049250;28;20438;-70
2021/10/14 09:51:55;;;;;;;9.65;6.47;;;14.10;99.90;;;;;;5050000;28;20458;-69
2021/10/14 09:54:21;;;;;;;11.30;7.68;;;14.10;99.90;;;;;;5049111;28;20395;-69
2021/10/14 09:56:47;;;;;;;8.88;5.90;;;14.10;99.90;;;;;;5032203;28;20044;-70
2021/10/14 09:59:12;;;;;;;10.20;6.60;;;14.20;99.90;;;;;;5048569;28;20048;-70
2021/10/14 10:01:40;;;;;;;13.55;7.55;;;14.20;99.90;;;;;;5030119;28;20037;-69
2021/10/14 10:04:06;;;;;;;11.25;6.90;;;14.20;99.90;;;;;;5058062;28;20052;-70
2021/10/14 10:06:37;;;;;;;10.68;6.80;;;14.30;99.90;;;;;;5048272;28;20097;-69
2021/10/14 10:09:17;;;;;;;12.60;6.75;;;14.30;99.90;;;;;;5042824;28;20074;-69
2021/10/14 10:11:50;;;;;;;13.05;6.68;;;14.30;99.90;;;;;;5048271;28;20063;-70
2021/10/14 10:14:19;;;;;;;14.45;6.82;;;14.40;99.90;;;;;;5047321;28;20419;-70
2021/10/14 10:16:58;;;;;;;11.32;6.55;;;14.50;99.90;;;;;;5048682;28;20072;-70
2021/10/14 10:19:40;;;;;;;12.30;7.00;;;14.40;99.90;;;;;;5024910;28;20083;-69
2021/10/14 10:22:07;;;;;;;10.57;7.18;;;14.50;99.90;;;;;;5046321;28;20075;-70
2021/10/14 10:24:34;;;;;;;10.73;6.55;;;14.50;99.90;;;;;;5042160;28;20120;-70
2021/10/14 10:27:03;;;;;;;11.43;6.97;;;14.40;99.90;;;;;;5031379;28;20122;-70
2021/10/14 10:29:28;;;;;;;11.27;7.75;;;14.40;99.90;;;;;;5023905;28;20646;-70
2021/10/14 10:31:59;;;;;;;9.18;6.55;;;14.30;99.90;;;;;;5026461;28;20052;-70
2021/10/14 10:37:45;;;;;;;11.60;7.53;;;14.20;99.90;;;;;;5065547;28;20151;-70
2021/10/14 10:40:13;;;;;;;8.13;6.45;;;14.20;99.90;;;;;;5014506;28;20814;-70
2021/10/14 10:43:09;;;;;;;12.60;6.93;;;14.20;99.90;;;;;;5050240;28;20040;-71
2021/10/14 10:45:41;;;;;;;9.68;6.95;;;14.20;99.90;;;;;;5050758;28;20037;-70
2021/10/14 10:48:07;;;;;;;11.68;6.45;;;14.20;99.90;;;;;;5019943;28;20049;-70
2021/10/14 10:50:33;;;;;;;12.05;6.40;;;14.20;99.90;;;;;;5035706;28;20568;-70
2021/10/14 10:53:08;;;;;;;9.55;6.40;;;14.30;99.90;;;;;;5042782;28;20052;-70
2021/10/14 10:55:39;;;;;;;12.25;6.38;;;14.30;99.90;;;;;;5061450;28;20097;-70
2021/10/14 10:58:09;;;;;;;9.77;6.20;;;14.30;99.90;;;;;;5050439;28;20605;-70
2021/10/14 11:00:38;;;;;;;8.90;5.28;;;14.40;99.90;;;;;;5046846;28;20040;-70
2021/10/14 11:03:13;;;;;;;9.02;5.57;;;14.40;99.90;;;;;;5047842;28;20616;-69
2021/10/14 11:06:01;;;;;;;6.65;5.28;;;14.40;99.90;;;;;;5042942;28;20045;-69
2021/10/14 11:08:32;;;;;;;9.25;4.90;;;14.40;99.90;;;;;;5060486;28;20059;-69
2021/10/14 11:10:58;;;;;;;;;;;14.50;99.90;;;;;;5035739;28;20048;-69
2021/10/14 11:13:27;;;;;;;7.53;4.57;;;14.50;99.90;;;;;;5032777;28;19920;-70
2021/10/14 11:15:58;;;;;;;6.88;4.63;;;14.50;99.90;;;;;;5049577;28;20128;-70
2021/10/14 11:18:24;;;;;;;;;;;14.50;99.90;;;;;;5027780;28;20304;-69
2021/10/14 11:21:05;;;;;;;7.63;4.35;;;14.50;99.90;;;;;;5034441;28;19928;-70
2021/10/14 11:23:37;;;;;;;7.53;4.40;;;14.60;99.90;;;;;;5045853;28;20048;-70
2021/10/14 11:26:14;;;;;;;8.15;4.72;;;14.60;99.90;;;;;;5048249;28;20040;-70
2021/10/14 11:29:04;;;;;;;8.07;4.32;;;14.70;99.90;;;;;;5045783;28;20395;-69
2021/10/14 11:31:36;;;;;;;8.60;4.88;;;14.70;99.90;;;;;;5031956;28;20138;-69
2021/10/14 11:34:11;;;;;;;7.00;4.32;;;14.80;99.90;;;;;;5043233;28;20075;-69
2021/10/14 11:36:39;;;;;;;8.98;4.25;;;14.90;99.90;;;;;;5049571;28;20119;-69
2021/10/14 11:39:09;;;;;;;8.32;4.30;;;14.90;99.90;;;;;;5031115;28;20047;-69
2021/10/14 11:41:35;;;;;;;8.32;4.75;;;15.00;99.90;;;;;;5047204;28;20045;-69
2021/10/14 11:44:07;;;;;;;7.43;4.75;;;15.00;99.90;;;;;;5044907;28;20044;-69
2021/10/14 11:46:36;;;;;;;8.63;4.55;;;15.00;99.90;;;;;;5051719;28;20056;-70
2021/10/14 11:49:07;;;;;;;9.57;5.68;;;15.00;99.90;;;;;;5027415;28;20047;-69
2021/10/14 11:51:34;;;;;;;7.80;4.70;;;15.00;99.90;;;;;;5045376;28;20067;-69
2021/10/14 11:54:07;;;;;;;9.23;4.93;;;15.00;99.90;;;;;;5045469;28;21528;-68
2021/10/14 11:56:42;;;;;;;11.23;5.28;;;15.10;99.90;;;;;;5046011;28;20041;-69
2021/10/14 11:59:08;;;;;;;10.50;5.07;;;15.10;99.90;;;;;;5030126;28;20055;-70
2021/10/14 12:01:45;;;;;;;5.90;5.13;;;15.00;99.90;;;;;;5048646;28;20033;-70
2021/10/14 12:04:15;;;;;;;7.32;5.13;;;15.00;99.90;;;;;;5031145;28;20136;-69
2021/10/14 12:06:41;;;;;;;8.38;5.60;;;15.00;99.90;;;;;;5045025;28;20053;-69
2021/10/14 12:09:07;;;;;;;9.18;4.97;;;15.00;99.90;;;;;;5049220;28;20136;-70
2021/10/14 12:11:33;;;;;;;8.52;5.20;;;15.00;99.90;;;;;;5029316;28;20120;-69
2021/10/14 12:14:02;;;;;;;8.55;5.20;;;14.90;99.90;;;;;;5045689;28;20392;-69
2021/10/14 12:16:30;;;;;;;9.63;5.13;;;14.90;99.90;;;;;;5062661;28;20041;-69
2021/10/14 12:19:17;;;;;;;9.02;5.95;;;14.90;99.90;;;;;;5031982;28;20061;-70
2021/10/14 12:21:45;;;;;;;8.07;5.30;;;14.90;99.90;;;;;;5045404;28;20132;-70
2021/10/14 12:24:16;;;;;;;8.77;5.68;;;14.90;99.90;;;;;;5047043;28;20056;-70
2021/10/14 12:26:53;;;;;;;10.27;6.38;;;14.90;99.90;;;;;;5047045;28;20029;-69
2021/10/14 12:29:33;;;;;;;10.10;6.28;;;14.90;99.90;;;;;;5046899;28;20044;-70
2021/10/14 12:32:19;;;;;;;11.48;5.45;;;14.90;99.90;;;;;;5048432;28;20089;-70
2021/10/14 12:34:59;;;;;;;8.77;5.97;;;14.90;99.90;;;;;;5029485;28;20041;-70
2021/10/14 12:37:31;;;;;;;8.25;6.15;;;14.90;99.90;;;;;;5046852;28;20045;-70
2021/10/14 12:40:19;;;;;;;9.88;5.60;;;14.90;99.90;;;;;;5031592;28;20094;-69